createdAt,value
2022-08-22T04:35:47.595Z,69.530998
2022-08-22T04:38:02.014Z,70.508003
2022-08-22T04:40:16.415Z,71.276001
2022-08-22T04:42:33.189Z,71.115997
2022-08-22T04:44:45.325Z,70.418999
2022-08-22T04:46:59.833Z,69.877998
2022-08-22T04:49:14.296Z,69.297997
2022-08-22T04:51:28.655Z,68.754997
2022-08-22T04:53:43.090Z,68.260002
2022-08-22T04:55:57.524Z,67.573997
2022-08-22T04:58:14.902Z,67.154999
2022-08-22T05:00:29.257Z,66.789001
2022-08-22T05:02:43.604Z,66.394997
2022-08-22T05:04:59.991Z,66.017998
2022-08-22T05:07:14.419Z,65.625999
2022-08-22T05:09:28.753Z,65.416
2022-08-22T05:11:43.194Z,65.325996
2022-08-22T05:13:57.573Z,65.123001
2022-08-22T05:16:11.919Z,64.792999
2022-08-22T05:18:29.502Z,64.684998
2022-08-22T05:20:42.634Z,64.607002
2022-08-22T05:22:58.028Z,64.646004
2022-08-22T05:25:13.366Z,64.829002
2022-08-22T05:27:27.871Z,64.913002
2022-08-22T05:29:42.237Z,65.162003
2022-08-22T05:31:56.649Z,65.378998
2022-08-22T05:34:11.030Z,65.524002
2022-08-22T05:36:25.365Z,65.669998
2022-08-22T05:38:39.839Z,65.682999
2022-08-22T05:40:54.212Z,65.896004
2022-08-22T05:43:09.639Z,66.106003
2022-08-22T05:45:24.023Z,66.085999
2022-08-22T05:47:38.437Z,66.096001
2022-08-22T05:49:52.769Z,66.278999
2022-08-22T05:52:07.167Z,66.278
2022-08-22T05:54:21.604Z,66.214996
2022-08-22T05:56:37.917Z,66.119003
2022-08-22T05:58:52.338Z,65.922997
2022-08-22T06:01:06.735Z,65.862999
2022-08-22T06:03:21.246Z,65.928001
2022-08-22T06:05:35.635Z,65.885002
2022-08-22T06:07:50.037Z,65.709999
2022-08-22T06:10:04.393Z,65.537003
2022-08-22T06:12:22.047Z,65.330002
2022-08-22T06:14:34.173Z,64.903
2022-08-22T06:16:51.551Z,64.432999
2022-08-22T06:19:19.162Z,64.009003
2022-08-22T06:21:24.242Z,63.77
2022-08-22T06:23:40.293Z,63.971001
2022-08-22T06:25:54.669Z,63.853001
2022-08-22T06:28:09.083Z,63.938999
2022-08-22T06:30:23.507Z,63.979
2022-08-22T06:32:58.208Z,63.984001
2022-08-22T06:34:55.250Z,63.681
2022-08-22T06:37:09.706Z,63.576
2022-08-22T06:39:24.054Z,63.542
2022-08-22T06:41:38.436Z,63.568001
2022-08-22T06:43:52.807Z,63.442001
2022-08-22T06:46:07.135Z,63.438
2022-08-22T06:48:22.515Z,63.407001
2022-08-22T06:50:36.930Z,63.146999
2022-08-22T06:52:50.246Z,63.064999
2022-08-22T06:55:04.636Z,62.907001
2022-08-22T06:57:19.977Z,62.816002
2022-08-22T06:59:34.357Z,62.810001
2022-08-22T07:01:48.729Z,62.771999
2022-08-22T07:04:03.083Z,62.634998
2022-08-22T07:06:17.465Z,62.470001
2022-08-22T07:08:34.001Z,62.481998
2022-08-22T07:10:49.139Z,62.527
2022-08-22T07:13:03.594Z,62.479
2022-08-22T07:15:17.937Z,62.721001
2022-08-22T07:17:32.355Z,62.609001
2022-08-22T07:19:49.635Z,62.471001
2022-08-22T07:22:04.025Z,62.365002
2022-08-22T07:24:18.395Z,62.254002
2022-08-22T07:26:32.747Z,62.395
2022-08-22T07:28:50.992Z,62.466999
2022-08-22T07:31:04.446Z,62.384998
2022-08-22T07:33:25.166Z,62.467999
2022-08-22T07:35:36.093Z,62.673
2022-08-22T07:37:50.515Z,62.673
2022-08-22T07:40:04.925Z,62.810001
2022-08-22T07:42:19.250Z,62.963001
2022-08-22T07:44:35.584Z,63.363998
2022-08-22T07:46:49.955Z,63.470001
2022-08-22T07:49:09.308Z,63.243999
2022-08-22T07:51:20.688Z,63.014
2022-08-22T07:53:35.082Z,62.699001
2022-08-22T07:55:50.021Z,62.574001
2022-08-22T07:58:04.141Z,62.456001
2022-08-22T08:00:18.169Z,62.209999
2022-08-22T08:02:32.547Z,61.893002
2022-08-22T08:04:46.981Z,61.859001
2022-08-22T08:07:01.352Z,61.953999
2022-08-22T08:09:15.818Z,61.956001
2022-08-22T08:11:30.166Z,61.792
2022-08-22T08:13:45.565Z,61.391998
2022-08-22T08:16:00.216Z,61.233002
2022-08-22T08:18:14.554Z,61.188999
2022-08-22T08:20:28.986Z,60.716999
2022-08-22T08:22:43.492Z,60.470001
2022-08-22T08:24:58.002Z,60.341999
2022-08-22T08:27:13.409Z,60.050999
2022-08-22T08:29:27.828Z,60.028999
2022-08-22T08:31:43.452Z,59.639999
2022-08-22T08:33:56.622Z,59.473
2022-08-22T08:36:11.035Z,59.099998
2022-08-22T08:38:25.401Z,58.595001
2022-08-22T08:40:39.734Z,57.956001
2022-08-22T08:42:57.112Z,57.693001
2022-08-22T08:45:11.456Z,57.775002
2022-08-22T08:47:25.824Z,57.701
2022-08-22T08:49:42.249Z,57.560001
2022-08-22T08:51:54.539Z,57.519001
2022-08-22T08:54:08.942Z,57.445
2022-08-22T08:56:23.283Z,57.417
2022-08-22T08:58:37.940Z,57.050999
2022-08-22T09:00:52.239Z,56.188999
2022-08-22T09:03:09.514Z,55.839001
2022-08-22T09:05:26.850Z,55.543999
2022-08-22T09:07:41.621Z,55.493999
2022-08-22T09:09:57.052Z,55.356998
2022-08-22T09:12:11.442Z,55.348999
2022-08-22T09:14:26.251Z,55.229
2022-08-22T09:16:42.573Z,54.787998
2022-08-22T09:18:57.759Z,54.245998
2022-08-22T09:21:12.584Z,53.852001
2022-08-22T09:23:29.456Z,53.459
2022-08-22T09:25:44.831Z,53.220001
2022-08-22T09:28:00.452Z,52.835999
2022-08-22T09:30:14.601Z,52.202
2022-08-22T09:32:30.062Z,51.948002
2022-08-22T09:34:45.432Z,52.275002
2022-08-22T09:36:59.839Z,52.098999
2022-08-22T09:39:14.229Z,51.752998
2022-08-22T09:41:29.674Z,51.789001
2022-08-22T09:43:45.714Z,51.985001
2022-08-22T09:46:01.957Z,51.942001
2022-08-22T09:48:14.791Z,51.790001
2022-08-22T09:50:29.371Z,51.981998
2022-08-22T09:52:43.699Z,51.506001
2022-08-22T09:54:58.089Z,51.265999
2022-08-22T09:57:13.853Z,51.229
2022-08-22T09:59:26.862Z,50.695
2022-08-22T10:01:43.294Z,50.198002
2022-08-22T10:03:58.577Z,49.750999
2022-08-22T10:06:12.945Z,49.616001
2022-08-22T10:08:28.320Z,50.280998
2022-08-22T10:10:42.655Z,50.578999
2022-08-22T10:12:57.180Z,50.700001
2022-08-22T10:15:12.418Z,50.255001
2022-08-22T10:17:28.782Z,49.720001
2022-08-22T10:19:44.183Z,49.382999
2022-08-22T10:21:59.555Z,49.389999
2022-08-22T10:24:13.975Z,48.805
2022-08-22T10:26:34.180Z,48.465
2022-08-22T10:28:48.785Z,48.007
2022-08-22T10:31:03.140Z,47.835999
2022-08-22T10:33:18.556Z,47.779999
2022-08-22T10:35:35.925Z,47.634998
2022-08-22T10:37:51.432Z,47.721001
2022-08-22T10:40:06.920Z,47.047001
2022-08-22T10:42:23.225Z,47.116001
2022-08-22T10:44:37.603Z,47.055
2022-08-22T10:46:52.981Z,46.911999
2022-08-22T10:49:08.451Z,46.75
2022-08-22T10:51:24.791Z,46.368
2022-08-22T10:53:40.226Z,46.185001
2022-08-22T10:55:54.684Z,46.122002
2022-08-22T10:58:09.089Z,45.528
2022-08-22T11:00:25.533Z,44.771999
2022-08-22T11:02:37.904Z,44.521
2022-08-22T11:04:54.220Z,43.900002
2022-08-22T11:07:09.340Z,43.589001
2022-08-22T11:09:23.400Z,43.297001
2022-08-22T11:11:39.817Z,43.604
2022-08-22T11:13:54.181Z,43.205002
2022-08-22T11:16:09.657Z,42.945999
2022-08-22T11:18:24.087Z,43.004002
2022-08-22T11:20:40.595Z,43.004002
2022-08-22T11:22:55.726Z,42.671001
2022-08-22T11:25:11.138Z,42.367001
2022-08-22T11:27:25.286Z,42.009998
2022-08-22T11:29:43.524Z,41.625999
2022-08-22T11:32:01.425Z,40.452
2022-08-22T11:34:14.840Z,40.712002
2022-08-22T11:36:31.424Z,41.083
2022-08-22T11:38:45.549Z,41.049
2022-08-22T11:40:59.916Z,40.359001
2022-08-22T11:43:17.357Z,41.047001
2022-08-22T11:45:32.809Z,41.553001
2022-08-22T11:47:49.134Z,41.410999
2022-08-22T11:50:03.566Z,41.223
2022-08-22T11:52:20.913Z,41.181999
2022-08-22T11:54:36.336Z,41.25
2022-08-22T11:56:53.614Z,41.241001
2022-08-22T11:59:07.984Z,41.034
2022-08-22T12:01:23.388Z,40.766998
2022-08-22T12:03:41.118Z,40.390999
2022-08-22T12:05:55.621Z,40.792
2022-08-22T12:08:10.064Z,40.082001
2022-08-22T12:10:25.338Z,40.162998
2022-08-22T12:12:39.742Z,39.358002
2022-08-22T12:14:54.670Z,39.551998
2022-08-22T12:17:08.838Z,39.294998
2022-08-22T12:19:26.022Z,39.062
2022-08-22T12:21:42.359Z,38.875
2022-08-22T12:23:58.824Z,39.23
2022-08-22T12:26:15.426Z,39.601002
2022-08-22T12:28:31.831Z,39.116001
2022-08-22T12:30:46.202Z,39.113998
2022-08-22T12:33:03.573Z,38.819
2022-08-22T12:35:18.991Z,38.473
2022-08-22T12:37:37.221Z,38.422001
2022-08-22T12:39:53.767Z,36.728001
2022-08-22T12:42:08.070Z,35.707001
2022-08-22T12:44:23.463Z,36.137001
2022-08-22T12:46:37.771Z,36.497002
2022-08-22T12:48:55.098Z,36.395
2022-08-22T12:51:17.376Z,35.688
2022-08-22T12:53:27.996Z,36.657001
2022-08-22T12:55:42.167Z,36.098999
2022-08-22T12:57:56.763Z,36.237999
2022-08-22T13:00:11.637Z,36.530998
2022-08-22T13:02:26.403Z,36.903999
2022-08-22T13:04:41.772Z,36.745998
2022-08-22T13:06:56.167Z,35.676998
2022-08-22T13:09:10.584Z,36.054001
2022-08-22T13:11:24.969Z,36.051998
2022-08-22T13:13:40.413Z,35.653
2022-08-22T13:15:56.795Z,35.617001
2022-08-22T13:18:29.071Z,34.743999
2022-08-22T13:20:30.533Z,34.632999
2022-08-22T13:22:45.525Z,34.488998
2022-08-22T13:25:02.237Z,34.631001
2022-08-22T13:27:20.329Z,33.393002
2022-08-22T13:29:34.977Z,33.832001
2022-08-22T13:31:49.329Z,33.735001
2022-08-22T13:34:04.752Z,33.766998
2022-08-22T13:36:20.136Z,33.563
2022-08-22T13:38:36.461Z,32.574001
2022-08-22T13:40:53.776Z,33.438999
2022-08-22T13:43:08.186Z,33.862999
2022-08-22T13:45:22.703Z,34.193001
2022-08-22T13:47:39.361Z,34.145
2022-08-22T13:49:52.458Z,34.457001
2022-08-22T13:52:06.952Z,34.632
2022-08-22T13:54:24.346Z,34.527
2022-08-22T13:56:39.726Z,34.821999
2022-08-22T13:58:57.070Z,34.453999
2022-08-22T14:01:11.537Z,34.556
2022-08-22T14:03:26.797Z,35.030998
2022-08-22T14:05:41.153Z,36.082001
2022-08-22T14:07:55.508Z,35.993999
2022-08-22T14:10:14.736Z,35.938
2022-08-22T14:12:27.234Z,36.111
2022-08-22T14:14:45.955Z,36.409
2022-08-22T14:17:00.003Z,37.07
2022-08-22T14:19:15.402Z,37.432999
2022-08-22T14:21:33.376Z,36.557999
2022-08-22T14:23:47.177Z,36.578999
2022-08-22T14:26:01.591Z,36.530998
2022-08-22T14:28:16.919Z,35.134998
2022-08-22T14:30:31.323Z,35.023998
2022-08-22T14:32:45.706Z,35.293999
2022-08-22T14:35:01.128Z,34.469002
2022-08-22T14:37:16.442Z,34.650002
2022-08-22T14:39:30.815Z,35.417999
2022-08-22T14:41:53.015Z,35.854
2022-08-22T14:44:03.512Z,36.494999
2022-08-22T14:46:19.734Z,36.269001
2022-08-22T14:48:39.259Z,36.331001
2022-08-22T14:50:52.913Z,36.667
2022-08-22T14:53:07.800Z,36.783001
2022-08-22T14:55:23.224Z,37.150002
2022-08-22T14:57:38.590Z,37.215
2022-08-22T14:59:52.943Z,36.854
2022-08-22T15:02:07.391Z,37.257999
2022-08-22T15:04:21.684Z,37.313
2022-08-22T15:06:38.044Z,36.688999
2022-08-22T15:08:55.398Z,36.550999
2022-08-22T15:11:09.758Z,36.848999
2022-08-22T15:13:25.254Z,36.226002
2022-08-22T15:15:41.358Z,36.363998
2022-08-22T15:17:57.846Z,36.02
2022-08-22T15:20:13.163Z,36.415001
2022-08-22T15:22:28.509Z,37.136002
2022-08-22T15:24:43.133Z,37.606998
2022-08-22T15:26:57.504Z,36.859001
2022-08-22T15:29:13.839Z,36.813
2022-08-22T15:31:29.245Z,36.816002
2022-08-22T15:33:45.318Z,37.164001
2022-08-22T15:35:58.990Z,37.299999
2022-08-22T15:38:13.385Z,37.599998
2022-08-22T15:40:27.742Z,37.323002
2022-08-22T15:42:44.086Z,37.058998
2022-08-22T15:44:58.455Z,37.535999
2022-08-22T15:47:23.884Z,37.445
2022-08-22T15:49:31.215Z,37.007
2022-08-22T15:51:45.505Z,37.306
2022-08-22T15:54:00.825Z,38.09
2022-08-22T15:56:18.154Z,37.910999
2022-08-22T15:58:32.504Z,37.494999
2022-08-22T16:00:46.897Z,37.228001
2022-08-22T16:03:01.608Z,36.886002
2022-08-22T16:05:15.632Z,37.478001
2022-08-22T16:07:30.082Z,36.386002
2022-08-22T16:09:44.557Z,36.537998
2022-08-22T16:11:59.879Z,36.353001
2022-08-22T16:14:14.233Z,36.033001
2022-08-22T16:16:30.687Z,35.411999
2022-08-22T16:18:45.269Z,35.932999
2022-08-22T16:20:59.777Z,35.035
2022-08-22T16:23:14.203Z,34.91
2022-08-22T16:25:29.961Z,35.848
2022-08-22T16:27:44.585Z,37.622002
2022-08-22T16:29:58.939Z,36.124001
2022-08-22T16:32:13.313Z,36.730999
2022-08-22T16:34:27.657Z,37.452999
2022-08-22T16:36:42.164Z,37.707001
2022-08-22T16:38:56.591Z,38.728001
2022-08-22T16:41:11.003Z,36.987
2022-08-22T16:43:28.903Z,38.021
2022-08-22T16:45:41.869Z,37.027
2022-08-22T16:47:57.820Z,37.751999
2022-08-22T16:50:10.814Z,38.063999
2022-08-22T16:52:25.151Z,37.243999
2022-08-22T16:54:40.531Z,37.175999
2022-08-22T16:56:54.993Z,37.422001
2022-08-22T16:59:22.785Z,37.151001
2022-08-22T17:01:27.513Z,37.956001
2022-08-22T17:03:41.831Z,38.678001
2022-08-22T17:05:56.476Z,39.257999
2022-08-22T17:08:10.892Z,39.598999
2022-08-22T17:10:26.166Z,39.763
2022-08-22T17:12:40.822Z,40.234001
2022-08-22T17:14:55.114Z,40.478001
2022-08-22T17:17:09.441Z,40.953999
2022-08-22T17:19:23.831Z,41.928001
2022-08-22T17:21:38.371Z,41.507999
2022-08-22T17:23:55.914Z,42.102001
2022-08-22T17:26:10.301Z,42.278999
2022-08-22T17:28:25.603Z,42.361
2022-08-22T17:30:42.948Z,42.476002
2022-08-22T17:32:59.293Z,42.812
2022-08-22T17:35:11.981Z,42.842999
2022-08-22T17:37:26.368Z,42.710999
2022-08-22T17:39:40.832Z,42.966999
2022-08-22T17:41:55.271Z,43.215
2022-08-22T17:44:09.655Z,43.389
2022-08-22T17:46:23.997Z,43.389
2022-08-22T17:48:38.496Z,43.895
2022-08-22T17:50:52.894Z,43.587002
2022-08-22T17:53:07.372Z,43.966
2022-08-22T17:55:22.716Z,44.435001
2022-08-22T17:57:37.161Z,44.632
2022-08-22T17:59:51.573Z,44.639
2022-08-22T18:02:06.062Z,44.949001
2022-08-22T18:04:21.563Z,45.448002
2022-08-22T18:06:36.913Z,45.998001
2022-08-22T18:11:08.727Z,46.630001
2022-08-22T18:13:23.185Z,46.578999
2022-08-22T18:15:37.560Z,46.555
2022-08-22T18:17:52.242Z,46.949001
2022-08-22T18:20:06.634Z,46.498001
2022-08-22T18:22:21.015Z,46.602001
2022-08-22T18:24:35.377Z,46.658001
2022-08-22T18:26:49.954Z,46.519001
2022-08-22T18:29:04.331Z,46.861
2022-08-22T18:31:18.776Z,46.805
2022-08-22T18:33:33.278Z,47.217999
2022-08-22T18:35:50.049Z,47.382999
2022-08-22T18:38:10.643Z,47.610001
2022-08-22T18:40:22.932Z,47.728001
2022-08-22T18:42:37.178Z,47.817001
2022-08-22T18:44:51.588Z,47.972
2022-08-22T18:47:05.933Z,48.198002
2022-08-22T18:49:20.317Z,48.424
2022-08-22T18:51:34.752Z,48.569
2022-08-22T18:53:50.141Z,48.712002
2022-08-22T18:56:04.512Z,48.823002
2022-08-22T18:58:18.881Z,49.118999
2022-08-22T19:00:33.256Z,49.083
2022-08-22T19:02:51.080Z,49.217999
2022-08-22T19:05:05.116Z,49.229
2022-08-22T19:07:19.522Z,49.349998
2022-08-22T19:09:33.897Z,49.171001
2022-08-22T19:11:48.298Z,49.368999
2022-08-22T19:14:02.787Z,49.092999
2022-08-22T19:16:17.157Z,49.131001
2022-08-22T19:18:31.532Z,49.228001
2022-08-22T19:20:45.934Z,49.339001
2022-08-22T19:23:00.280Z,49.827999
2022-08-22T19:25:14.659Z,49.979
2022-08-22T19:27:31.308Z,49.820999
2022-08-22T19:29:43.483Z,49.915001
2022-08-22T19:31:57.870Z,50.533001
2022-08-22T19:34:13.274Z,50.351002
2022-08-22T19:36:27.699Z,50.02
2022-08-22T19:38:42.018Z,50.123001
2022-08-22T19:40:58.203Z,50.685001
2022-08-22T19:43:10.883Z,50.883999
2022-08-22T19:45:25.781Z,50.653
2022-08-22T19:47:39.793Z,51.419998
2022-08-22T19:49:54.170Z,51.078999
2022-08-22T19:52:10.534Z,51.162998
2022-08-22T19:54:24.965Z,51.539001
2022-08-22T19:56:39.330Z,51.264
2022-08-22T19:58:53.766Z,51.588001
2022-08-22T20:01:08.359Z,51.599998
2022-08-22T20:03:22.951Z,52.058998
2022-08-22T20:05:37.348Z,52.515999
2022-08-22T20:07:53.927Z,52.375999
2022-08-22T20:10:08.313Z,52.112
2022-08-22T20:12:22.735Z,51.854
2022-08-22T20:14:37.134Z,52.300999
2022-08-22T20:16:51.551Z,52.004002
2022-08-22T20:19:08.128Z,52.053001
2022-08-22T20:21:22.776Z,52.657001
2022-08-22T20:23:38.172Z,52.410999
2022-08-22T20:25:52.735Z,52.493
2022-08-22T20:28:07.146Z,52.694
2022-08-22T20:30:21.540Z,52.515999
2022-08-22T20:32:36.966Z,52.037998
2022-08-22T20:34:51.407Z,52.283001
2022-08-22T20:37:26.933Z,52.48
2022-08-22T20:39:23.227Z,52.551998
2022-08-22T20:41:37.687Z,52.463001
2022-08-22T20:43:52.169Z,52.790001
2022-08-22T20:46:06.626Z,52.765999
2022-08-22T20:48:23.021Z,52.797001
2022-08-22T20:50:37.599Z,53.161999
2022-08-22T20:52:54.275Z,53.081001
2022-08-22T20:55:06.473Z,52.557999
2022-08-22T20:57:20.895Z,52.320999
2022-08-22T20:59:35.359Z,53.015999
2022-08-22T21:01:50.782Z,52.861
2022-08-22T21:04:05.246Z,52.925999
2022-08-22T21:06:20.629Z,53.068001
2022-08-22T21:08:35.201Z,53.036999
2022-08-22T21:10:49.567Z,52.987999
2022-08-22T21:13:03.966Z,53.067001
2022-08-22T21:15:18.389Z,53.257999
2022-08-22T21:17:33.667Z,53.305
2022-08-22T21:19:49.287Z,53.372002
2022-08-22T21:22:05.689Z,53.131001
2022-08-22T21:24:20.152Z,53.007999
2022-08-22T21:26:34.607Z,53.008999
2022-08-22T21:28:49.007Z,52.889
